Airfield :
LOGIN :

Register | Disclaimer

   EN    FR    IT 

 










Legend :    VFR   Marginal VFR   IFR   Intensive IFR   Very Intensive IFR
Visi :
Ceiling :
>= 8 km
>= 3000ft
5 to 8 km
1000 to 3000 ft
1500m to 5 km
500 to 1000 ft
800 to 1500m
200 to 500 ft
< 800m
< 200 ft
Symbols :   Thunderstorms  Fog  Heavy snow  Heavy precipitations  Wind > 20 kt
SIGMETs :     Misc.  Thunderstorms  Icing  Turbulence  Mountain Waves  Volcanic Ashes






- Airport Elevation : 295 ft
- IATA code : BWE


EDVE - Braunschweig

CURRENT METAR :
  • 211550Z 11006KT 6000 OVC004 06/06 Q1009

EXPIRED METARs :
  • 211520Z 12005KT 6000 OVC004 06/06 Q1009
  • 211450Z 12005KT 7000 OVC004 06/06 Q1009
  • 211420Z 12004KT 090V160 6000 OVC005 06/06 Q1009
  • 211350Z 11004KT 4500 BR OVC003 06/06 Q1009
  • 211320Z 09005KT 0900 R26/0900V1500U -DZ FG BKN001 OVC004 06/05 Q1009
  • 211250Z 09004KT 050V110 0900 R26/1000D -DZ FG BKN002 OVC004 06/05 Q1010

TAF TAF EDVE
Valid from the 21 at 15:00 until the 21 at 21:00 UTC


211400Z 2115/2121 VRB03KT 5000 BR OVC005
BECMG 2115/2118 3000 -RA BKN002
PROB30
TEMPO 2117/2121 0600 FG SCT001



MET'MAP, your aeronautical weather chart ! - Copyright ORBIFLY December 2007 - Disclaimer

ORBIFLY MET'MAP TEAM :

Programming & Development : Alexandra Zaïnal
Concept & Development : Baudouin d'Aumeries
Co-Development & Prog : Marc-Olivier Méhu
Technical & hardware support : Manuel Goepfert

Contact : metmap@orbifly.com




SOURCES & CREDITS :

   NOAA